Time;durP1;ratioP1;P1;durP2;ratioP2;P2;SDS_P1;SDS_P2;PMS_P1;PMS_P2;Temp;Humidity;BMP_temperature;BMP_pressure;BME280_temperature;BME280_humidity;BME280_pressure;Samples;Min_cycle;Max_cycle;Signal;HPM_P1;HPM_P2
2022/03/30 00:01:32;;;;;;;29.10;18.30;;;13.10;40.50;;;;;;5055661;28;20868;-74
2022/03/30 00:03:59;;;;;;;26.17;18.70;;;13.10;41.70;;;;;;5055646;28;20473;-74
2022/03/30 00:06:27;;;;;;;27.43;19.20;;;13.10;42.40;;;;;;5056031;28;20536;-75
2022/03/30 00:08:54;;;;;;;31.40;20.03;;;13.10;42.40;;;;;;5056223;28;20858;-75
2022/03/30 00:11:22;;;;;;;32.97;21.20;;;13.10;42.50;;;;;;5056222;28;20465;-74
2022/03/30 00:13:49;;;;;;;25.90;20.10;;;13.10;44.30;;;;;;5055875;28;20468;-74
2022/03/30 00:16:16;;;;;;;28.20;19.47;;;13.10;45.30;;;;;;5056575;28;20879;-74
2022/03/30 00:18:43;;;;;;;32.47;22.00;;;13.10;46.00;;;;;;5056186;28;20453;-74
2022/03/30 00:21:09;;;;;;;30.50;21.80;;;13.10;46.80;;;;;;5055138;28;20963;-74
2022/03/30 00:23:38;;;;;;;34.23;21.37;;;12.90;47.10;;;;;;5055671;28;20542;-75
2022/03/30 00:26:05;;;;;;;29.30;20.50;;;12.70;49.00;;;;;;5055581;28;20529;-75
2022/03/30 00:28:32;;;;;;;30.67;20.77;;;12.60;48.70;;;;;;5055712;28;21008;-74
2022/03/30 00:30:59;;;;;;;34.67;20.97;;;12.60;49.40;;;;;;5056056;28;20518;-74
2022/03/30 00:33:26;;;;;;;29.58;20.23;;;12.60;51.70;;;;;;5055486;28;20434;-75
2022/03/30 00:35:53;;;;;;;27.58;18.48;;;12.70;51.80;;;;;;5055910;28;20255;-75
2022/03/30 00:38:20;;;;;;;22.20;16.48;;;12.70;51.80;;;;;;5055614;28;20261;-75
2022/03/30 00:40:49;;;;;;;25.38;18.55;;;12.60;51.70;;;;;;5054260;28;20689;-75
2022/03/30 00:43:16;;;;;;;21.87;16.90;;;12.50;51.60;;;;;;5055150;28;20206;-75
2022/03/30 00:45:44;;;;;;;22.88;17.15;;;12.50;51.60;;;;;;5054523;28;20506;-75
2022/03/30 00:48:11;;;;;;;25.60;17.75;;;12.50;51.50;;;;;;5054647;28;20298;-76
2022/03/30 00:50:38;;;;;;;27.15;17.27;;;12.50;52.70;;;;;;5054799;28;20233;-75
2022/03/30 00:53:05;;;;;;;28.70;18.08;;;12.50;52.90;;;;;;5054751;28;20206;-75
2022/03/30 00:55:32;;;;;;;28.17;18.10;;;12.40;53.10;;;;;;5056157;28;20317;-75
2022/03/30 00:58:01;;;;;;;26.65;19.30;;;12.40;54.20;;;;;;5063860;28;20223;-76
2022/03/30 01:00:28;;;;;;;25.38;18.25;;;12.30;54.70;;;;;;5063397;28;20203;-74
2022/03/30 01:02:55;;;;;;;28.63;19.90;;;12.30;55.80;;;;;;5068311;28;20210;-75
2022/03/30 01:05:22;;;;;;;32.20;20.45;;;12.30;56.30;;;;;;5062357;28;20775;-75
2022/03/30 01:07:49;;;;;;;30.65;20.33;;;12.30;57.50;;;;;;5063772;28;20214;-74
2022/03/30 01:10:19;;;;;;;30.42;20.73;;;12.30;56.60;;;;;;5056132;28;20214;-74
2022/03/30 01:12:52;;;;;;;27.38;18.38;;;12.10;57.10;;;;;;5058543;28;20282;-75
2022/03/30 01:15:20;;;;;;;28.67;20.92;;;12.10;58.10;;;;;;5067363;28;20697;-75
2022/03/30 01:17:47;;;;;;;26.13;19.83;;;12.10;58.40;;;;;;5072204;28;20210;-73
2022/03/30 01:20:18;;;;;;;33.60;20.38;;;12.00;58.10;;;;;;5069033;28;20210;-75
2022/03/30 01:22:46;;;;;;;35.95;21.90;;;12.10;58.20;;;;;;5068542;28;20229;-74
2022/03/30 01:25:13;;;;;;;36.58;22.75;;;12.10;58.30;;;;;;5068751;28;20302;-75
2022/03/30 01:27:40;;;;;;;30.17;21.00;;;12.10;58.30;;;;;;5068085;28;20618;-74
2022/03/30 01:32:57;;;;;;;35.88;24.38;;;12.00;59.20;;;;;;5070631;28;20270;-75
2022/03/30 01:35:24;;;;;;;33.40;23.73;;;11.80;61.80;;;;;;5069889;28;20257;-75
2022/03/30 01:37:52;;;;;;;38.00;23.77;;;11.70;63.40;;;;;;5069721;28;20234;-75
2022/03/30 01:40:19;;;;;;;37.78;23.33;;;11.60;64.10;;;;;;5068088;28;20202;-75
2022/03/30 01:42:46;;;;;;;35.60;23.75;;;11.60;66.10;;;;;;5068951;28;20234;-76
2022/03/30 01:45:15;;;;;;;32.97;22.55;;;11.60;67.20;;;;;;5068395;28;20245;-75
2022/03/30 01:47:48;;;;;;;34.85;23.90;;;11.50;68.00;;;;;;5068613;28;20233;-75
2022/03/30 01:50:14;;;;;;;34.42;23.92;;;11.40;68.70;;;;;;5067716;28;20202;-74
2022/03/30 01:52:41;;;;;;;37.63;23.58;;;11.30;68.80;;;;;;5067594;28;20301;-75
2022/03/30 01:55:10;;;;;;;33.65;23.10;;;11.40;68.80;;;;;;5067963;28;20290;-75
2022/03/30 01:57:37;;;;;;;32.60;23.25;;;11.30;68.80;;;;;;5067003;28;20614;-74
2022/03/30 02:00:05;;;;;;;33.63;21.73;;;11.40;69.60;;;;;;5068391;28;20211;-74
2022/03/30 02:02:32;;;;;;;32.92;23.25;;;11.40;70.10;;;;;;5066405;28;20214;-76
2022/03/30 02:04:59;;;;;;;33.58;22.73;;;11.40;70.50;;;;;;5065575;28;20250;-74
2022/03/30 02:07:26;;;;;;;32.92;22.35;;;11.40;70.20;;;;;;5059252;28;20230;-75
2022/03/30 02:09:53;;;;;;;27.00;18.88;;;11.50;69.00;;;;;;5053229;28;20206;-75
2022/03/30 02:12:21;;;;;;;29.33;21.13;;;11.40;68.80;;;;;;5053434;28;20210;-74
2022/03/30 02:14:51;;;;;;;27.58;20.63;;;11.20;66.20;;;;;;5053737;28;20233;-74
2022/03/30 02:17:19;;;;;;;31.45;20.90;;;11.10;66.50;;;;;;5053556;28;20253;-75
2022/03/30 02:19:47;;;;;;;29.55;21.42;;;11.00;65.90;;;;;;5052716;28;20291;-75
2022/03/30 02:22:14;;;;;;;28.25;20.85;;;11.00;67.20;;;;;;5052525;28;20680;-74
2022/03/30 02:24:41;;;;;;;28.17;21.15;;;11.10;67.20;;;;;;5053083;28;20226;-76
2022/03/30 02:27:08;;;;;;;27.90;20.35;;;11.20;66.90;;;;;;5052992;28;20226;-74
2022/03/30 02:29:37;;;;;;;28.55;20.27;;;11.20;66.80;;;;;;5052737;28;20663;-74
2022/03/30 02:32:05;;;;;;;29.65;20.55;;;11.30;66.90;;;;;;5053405;28;20221;-75
2022/03/30 02:34:31;;;;;;;31.75;21.00;;;11.30;65.30;;;;;;5053261;28;20479;-74
2022/03/30 02:36:59;;;;;;;25.50;20.35;;;11.20;64.90;;;;;;5055052;28;20587;-75
2022/03/30 02:39:27;;;;;;;27.90;19.63;;;11.30;64.40;;;;;;5054025;28;20264;-75
2022/03/30 02:41:55;;;;;;;28.33;20.27;;;11.30;64.70;;;;;;5055050;28;20554;-74
2022/03/30 02:44:22;;;;;;;29.08;20.02;;;11.30;63.90;;;;;;5057007;28;20258;-74
2022/03/30 02:46:50;;;;;;;25.92;20.90;;;11.30;63.60;;;;;;5053635;28;20207;-73
2022/03/30 02:49:17;;;;;;;28.02;21.45;;;11.30;63.80;;;;;;5052875;28;20213;-75
2022/03/30 02:51:44;;;;;;;29.70;20.65;;;11.40;63.80;;;;;;5053020;28;20206;-74
2022/03/30 02:54:11;;;;;;;30.90;21.67;;;11.40;62.90;;;;;;5052703;28;20230;-75
2022/03/30 02:56:38;;;;;;;27.92;21.02;;;11.50;63.30;;;;;;5052724;28;20745;-75
2022/03/30 02:59:05;;;;;;;34.35;21.58;;;11.60;63.10;;;;;;5052486;28;20205;-74
2022/03/30 03:01:32;;;;;;;25.92;20.50;;;11.60;64.00;;;;;;5052882;28;20293;-74
2022/03/30 03:04:00;;;;;;;35.75;21.58;;;11.60;63.50;;;;;;5052772;28;20234;-74
2022/03/30 03:06:27;;;;;;;30.95;21.15;;;11.60;62.00;;;;;;5053174;28;20211;-75
2022/03/30 03:08:54;;;;;;;32.92;21.10;;;11.50;61.70;;;;;;5052819;28;20567;-75
2022/03/30 03:11:21;;;;;;;28.00;20.20;;;11.50;62.80;;;;;;5052918;28;20744;-74
2022/03/30 03:13:48;;;;;;;32.75;21.67;;;11.50;62.90;;;;;;5052693;28;20237;-74
2022/03/30 03:16:14;;;;;;;29.38;21.15;;;11.40;63.00;;;;;;5053572;28;20294;-74
2022/03/30 03:18:42;;;;;;;32.05;21.63;;;11.50;63.30;;;;;;5058978;28;20260;-75
2022/03/30 03:21:10;;;;;;;33.40;21.50;;;11.60;62.20;;;;;;5065691;28;20569;-74
2022/03/30 03:23:37;;;;;;;33.45;22.23;;;11.50;62.00;;;;;;5056869;28;20210;-75
2022/03/30 03:26:04;;;;;;;29.08;20.90;;;11.50;62.90;;;;;;5060479;28;20301;-75
2022/03/30 03:28:31;;;;;;;27.48;20.48;;;11.50;63.50;;;;;;5054057;28;20297;-76
2022/03/30 03:30:58;;;;;;;33.30;20.60;;;11.50;62.40;;;;;;5052556;28;20206;-75
2022/03/30 03:33:25;;;;;;;35.92;22.80;;;11.50;62.70;;;;;;5053144;28;20662;-74
2022/03/30 03:35:52;;;;;;;41.38;22.02;;;11.50;62.70;;;;;;5055224;28;20276;-75
2022/03/30 03:38:21;;;;;;;31.55;21.80;;;11.50;63.00;;;;;;5056435;28;20313;-74
2022/03/30 03:40:48;;;;;;;36.92;22.55;;;11.50;64.80;;;;;;5056259;28;20217;-75
2022/03/30 03:43:15;;;;;;;32.85;22.92;;;11.60;65.80;;;;;;5056885;28;20309;-75
2022/03/30 03:45:42;;;;;;;34.03;24.00;;;11.50;66.50;;;;;;5056748;28;20226;-74
2022/03/30 03:48:10;;;;;;;34.35;23.40;;;11.50;66.80;;;;;;5057531;28;20213;-74
2022/03/30 03:50:37;;;;;;;36.15;23.38;;;11.50;66.50;;;;;;5057927;28;20306;-74
2022/03/30 03:53:04;;;;;;;37.72;22.85;;;11.50;66.20;;;;;;5060132;28;20242;-74
2022/03/30 03:55:33;;;;;;;37.38;23.65;;;11.50;66.70;;;;;;5060562;28;20290;-76
2022/03/30 03:58:01;;;;;;;38.35;25.63;;;11.60;69.00;;;;;;5069350;28;20227;-75
2022/03/30 04:00:28;;;;;;;34.78;24.63;;;11.40;71.10;;;;;;5069179;28;20662;-75
2022/03/30 04:02:55;;;;;;;36.15;23.83;;;11.30;74.60;;;;;;5059772;28;20198;-75
2022/03/30 04:05:22;;;;;;;34.45;24.40;;;11.20;76.30;;;;;;5059790;28;20233;-77
2022/03/30 04:07:49;;;;;;;41.15;25.42;;;11.20;77.20;;;;;;5076777;28;20202;-78
2022/03/30 04:10:16;;;;;;;36.28;22.80;;;11.00;78.40;;;;;;5077868;28;20206;-79
2022/03/30 04:12:44;;;;;;;28.67;20.88;;;10.90;80.30;;;;;;5077712;28;20202;-77
2022/03/30 04:15:11;;;;;;;34.35;22.27;;;10.70;81.10;;;;;;5177037;22;20238;-74
2022/03/30 04:17:44;;;;;;;35.50;21.98;;;10.60;82.30;;;;;;5057297;28;20234;-74
2022/03/30 04:20:12;;;;;;;29.55;20.30;;;10.50;81.40;;;;;;5054500;28;20218;-74
2022/03/30 04:22:40;;;;;;;30.70;20.40;;;10.40;83.20;;;;;;5054760;28;20211;-73
2022/03/30 04:25:08;;;;;;;35.95;21.67;;;10.40;84.90;;;;;;5054492;28;20226;-73
2022/03/30 04:27:35;;;;;;;37.45;21.67;;;10.30;87.00;;;;;;5054130;28;20288;-75
2022/03/30 04:30:04;;;;;;;29.90;20.55;;;10.30;89.10;;;;;;5054443;28;20297;-73
2022/03/30 04:32:31;;;;;;;30.27;21.35;;;10.30;90.20;;;;;;5054790;28;20764;-74
2022/03/30 04:34:58;;;;;;;33.42;21.33;;;10.20;90.30;;;;;;5055358;28;20222;-74
2022/03/30 04:37:25;;;;;;;31.10;20.52;;;10.10;91.30;;;;;;5054654;28;20278;-74
2022/03/30 04:39:52;;;;;;;33.33;22.67;;;10.10;91.80;;;;;;5054401;28;20211;-74
2022/03/30 04:42:20;;;;;;;37.63;21.50;;;10.10;92.70;;;;;;5055428;28;20206;-74
2022/03/30 04:44:48;;;;;;;33.97;21.17;;;10.10;93.30;;;;;;5056877;28;20226;-74
2022/03/30 04:47:17;;;;;;;36.67;22.33;;;10.00;93.50;;;;;;5061395;28;20210;-73
2022/03/30 04:49:44;;;;;;;37.17;22.70;;;10.00;94.00;;;;;;5062989;28;20727;-73
2022/03/30 04:52:11;;;;;;;33.67;20.85;;;9.90;95.30;;;;;;5063012;28;20265;-74
2022/03/30 04:54:38;;;;;;;31.13;20.88;;;9.90;95.50;;;;;;5059610;28;20227;-74
2022/03/30 04:57:06;;;;;;;33.90;23.00;;;9.90;96.40;;;;;;5069871;28;20238;-74
2022/03/30 04:59:33;;;;;;;37.80;22.70;;;9.80;96.20;;;;;;5063627;28;20648;-74
2022/03/30 05:02:00;;;;;;;37.65;24.08;;;9.80;96.90;;;;;;5060012;28;20225;-74
2022/03/30 05:04:32;;;;;;;34.15;21.60;;;9.80;97.80;;;;;;5054302;28;20227;-73
2022/03/30 05:06:59;;;;;;;33.33;23.90;;;9.80;98.50;;;;;;5062883;28;20225;-74
2022/03/30 05:09:26;;;;;;;31.98;21.20;;;9.80;99.10;;;;;;5054249;28;20228;-73
2022/03/30 05:11:53;;;;;;;35.58;23.30;;;9.80;99.40;;;;;;5054193;28;20308;-74
2022/03/30 05:14:19;;;;;;;34.67;22.90;;;9.80;99.90;;;;;;5057117;28;20565;-72
2022/03/30 05:16:46;;;;;;;36.53;23.52;;;9.90;99.90;;;;;;5057883;28;20237;-73
2022/03/30 05:19:13;;;;;;;38.90;22.20;;;9.90;99.90;;;;;;5034368;28;20262;-73
2022/03/30 05:21:43;;;;;;;31.77;22.42;;;9.80;99.90;;;;;;5054571;28;20199;-73
2022/03/30 05:24:16;;;;;;;34.88;22.10;;;9.80;99.90;;;;;;5067529;28;20670;-74
2022/03/30 05:26:47;;;;;;;33.35;21.13;;;9.80;99.90;;;;;;5064404;28;20218;-74
2022/03/30 05:29:14;;;;;;;34.10;21.00;;;9.80;99.90;;;;;;5056936;28;20198;-73
2022/03/30 05:31:41;;;;;;;33.03;22.00;;;9.90;99.90;;;;;;5062488;28;20279;-74
2022/03/30 05:34:08;;;;;;;35.35;20.85;;;9.90;99.90;;;;;;5059381;28;20209;-74
2022/03/30 05:36:35;;;;;;;33.60;19.83;;;10.00;99.90;;;;;;5059419;28;20206;-74
2022/03/30 05:39:03;;;;;;;30.25;19.70;;;10.00;99.90;;;;;;5055173;28;20313;-74
2022/03/30 05:41:30;;;;;;;26.85;20.38;;;10.00;99.90;;;;;;5059230;28;20206;-74
2022/03/30 05:43:57;;;;;;;31.30;20.35;;;10.00;99.90;;;;;;5057600;28;20207;-74
2022/03/30 05:46:24;;;;;;;31.05;20.50;;;10.00;99.90;;;;;;5069421;28;20199;-74
2022/03/30 05:48:51;;;;;;;35.92;19.90;;;10.10;99.90;;;;;;5065227;28;20209;-74
2022/03/30 05:51:18;;;;;;;31.35;21.77;;;10.10;99.90;;;;;;5055362;28;20206;-74
2022/03/30 05:53:45;;;;;;;31.48;19.00;;;10.10;99.90;;;;;;5054914;28;20326;-75
2022/03/30 05:56:14;;;;;;;28.42;19.00;;;10.20;99.90;;;;;;5054838;28;20326;-75
2022/03/30 05:58:41;;;;;;;30.13;18.83;;;10.20;99.90;;;;;;5056644;28;20298;-75
2022/03/30 06:01:08;;;;;;;30.45;19.35;;;10.20;99.90;;;;;;5069746;28;20221;-73
2022/03/30 06:03:37;;;;;;;29.10;18.73;;;10.20;99.90;;;;;;5065071;28;20222;-74
2022/03/30 06:06:05;;;;;;;29.08;19.25;;;10.20;99.90;;;;;;5057174;28;20262;-73
2022/03/30 06:08:31;;;;;;;28.13;17.73;;;10.30;99.90;;;;;;5056525;28;20226;-74
2022/03/30 06:10:58;;;;;;;30.02;17.83;;;10.30;99.90;;;;;;5054244;28;20241;-74
2022/03/30 06:13:27;;;;;;;25.60;17.58;;;10.40;99.90;;;;;;5058417;28;20642;-75
2022/03/30 06:15:54;;;;;;;28.45;17.20;;;10.40;99.90;;;;;;5058118;28;20254;-73
2022/03/30 06:18:21;;;;;;;29.38;18.90;;;10.50;99.90;;;;;;5053274;28;20595;-74
2022/03/30 06:20:48;;;;;;;27.75;17.20;;;10.60;99.90;;;;;;5053104;28;20203;-73
2022/03/30 06:23:15;;;;;;;28.17;18.33;;;10.60;99.90;;;;;;5054001;28;20407;-74
2022/03/30 06:25:42;;;;;;;23.92;16.52;;;10.70;99.20;;;;;;5055864;28;20234;-73
2022/03/30 06:28:09;;;;;;;27.60;18.20;;;10.70;98.80;;;;;;5061144;28;20202;-75
2022/03/30 06:30:37;;;;;;;22.67;15.32;;;10.80;98.70;;;;;;5055959;28;20207;-73
2022/03/30 06:33:04;;;;;;;26.55;16.30;;;10.90;97.00;;;;;;5058428;28;20212;-74
2022/03/30 06:35:31;;;;;;;24.67;16.00;;;10.90;95.90;;;;;;5059462;28;20234;-74
2022/03/30 06:37:58;;;;;;;25.17;13.70;;;10.90;95.30;;;;;;5058822;28;20301;-75
2022/03/30 06:40:25;;;;;;;24.33;14.30;;;10.90;94.80;;;;;;5056477;28;20720;-74
2022/03/30 06:42:54;;;;;;;22.60;14.73;;;10.90;94.60;;;;;;5057688;28;20217;-73
2022/03/30 06:45:27;;;;;;;24.67;14.75;;;11.00;93.80;;;;;;5065994;28;20250;-74
2022/03/30 06:47:56;;;;;;;25.33;14.75;;;11.00;93.50;;;;;;5058193;28;20278;-75
2022/03/30 06:50:22;;;;;;;24.98;14.90;;;11.10;93.50;;;;;;5065902;28;20194;-74
2022/03/30 06:52:50;;;;;;;19.95;13.77;;;11.20;92.70;;;;;;5067277;28;20233;-73
2022/03/30 06:55:17;;;;;;;24.40;14.95;;;11.10;92.20;;;;;;5058688;28;20362;-75
2022/03/30 06:57:44;;;;;;;31.00;17.42;;;11.20;92.40;;;;;;5062208;28;20210;-75
2022/03/30 07:00:13;;;;;;;26.50;16.85;;;11.00;91.80;;;;;;5052701;28;20233;-75
2022/03/30 07:02:40;;;;;;;32.22;19.02;;;10.90;93.00;;;;;;5054236;28;20214;-74
2022/03/30 07:05:09;;;;;;;33.63;17.63;;;10.80;93.60;;;;;;5053049;28;20230;-75
2022/03/30 07:10:23;;;;;;;36.50;18.58;;;10.60;97.10;;;;;;5055552;28;20204;-75
2022/03/30 07:12:51;;;;;;;29.42;18.23;;;10.50;97.50;;;;;;5057335;28;20210;-75
2022/03/30 07:15:20;;;;;;;31.60;18.55;;;10.30;98.60;;;;;;5056515;28;20729;-74
2022/03/30 07:17:49;;;;;;;26.00;18.92;;;10.20;99.40;;;;;;5056744;28;20293;-74
2022/03/30 07:20:18;;;;;;;34.03;18.42;;;10.10;99.90;;;;;;5055823;28;20261;-75
2022/03/30 07:22:45;;;;;;;35.78;19.23;;;10.10;99.90;;;;;;5055966;28;20206;-74
2022/03/30 07:25:13;;;;;;;39.58;20.00;;;10.30;99.90;;;;;;5055617;28;20702;-74
2022/03/30 07:27:41;;;;;;;30.27;20.58;;;10.50;99.90;;;;;;5056071;28;20209;-74
2022/03/30 07:30:09;;;;;;;35.55;19.70;;;10.40;99.90;;;;;;5055218;28;20202;-74
2022/03/30 07:32:38;;;;;;;38.60;20.42;;;10.40;99.90;;;;;;5055727;28;20687;-74
2022/03/30 07:35:05;;;;;;;33.45;23.65;;;10.60;99.90;;;;;;5055858;28;20226;-74
2022/03/30 07:37:34;;;;;;;34.42;22.92;;;10.60;99.90;;;;;;5055122;28;20335;-75
2022/03/30 07:40:02;;;;;;;41.97;25.00;;;10.60;99.90;;;;;;5055303;28;20600;-75
2022/03/30 07:42:30;;;;;;;39.40;25.67;;;10.60;99.90;;;;;;5061485;28;20203;-74
2022/03/30 07:44:58;;;;;;;45.72;25.80;;;10.50;99.90;;;;;;5063369;28;20231;-76
2022/03/30 07:47:25;;;;;;;39.10;25.63;;;10.60;99.90;;;;;;5061750;28;20257;-74
2022/03/30 07:49:53;;;;;;;37.05;25.00;;;10.60;99.90;;;;;;5056493;28;20210;-74
2022/03/30 07:52:20;;;;;;;38.33;25.02;;;10.40;99.90;;;;;;5056313;28;20206;-75
2022/03/30 07:54:49;;;;;;;34.58;24.90;;;10.40;99.90;;;;;;5061412;28;20588;-75
2022/03/30 07:57:16;;;;;;;47.10;28.85;;;10.40;99.90;;;;;;5055193;28;20215;-75
2022/03/30 07:59:43;;;;;;;45.63;28.67;;;10.30;99.90;;;;;;5055277;28;20226;-75
2022/03/30 08:02:11;;;;;;;43.67;29.45;;;10.30;99.90;;;;;;5055624;28;20220;-75
2022/03/30 08:04:38;;;;;;;53.25;32.60;;;10.20;99.90;;;;;;5056323;28;20226;-76
2022/03/30 08:07:05;;;;;;;53.40;31.42;;;10.20;99.90;;;;;;5062487;28;20211;-76
2022/03/30 08:09:32;;;;;;;51.30;31.17;;;10.10;99.90;;;;;;5055843;28;20199;-76
2022/03/30 08:12:00;;;;;;;48.92;30.50;;;10.10;99.90;;;;;;5055652;28;20242;-78
2022/03/30 08:14:27;;;;;;;51.63;30.25;;;10.10;99.90;;;;;;5055486;28;20383;-76
2022/03/30 08:16:54;;;;;;;37.13;26.83;;;9.90;99.90;;;;;;5056215;28;20218;-76
2022/03/30 08:19:21;;;;;;;41.40;26.48;;;9.70;99.90;;;;;;5055803;28;20804;-76
2022/03/30 08:24:32;;;;;;;43.63;25.60;;;9.40;99.90;;;;;;5064473;28;20229;-74
2022/03/30 08:27:01;;;;;;;49.53;23.77;;;9.00;99.90;;;;;;5057488;28;20654;-75
2022/03/30 08:29:28;;;;;;;42.47;25.45;;;8.90;99.90;;;;;;5055951;28;20202;-75
2022/03/30 08:31:54;;;;;;;45.53;24.10;;;8.80;99.90;;;;;;5055816;28;20297;-75
2022/03/30 08:34:21;;;;;;;40.28;24.30;;;8.70;99.90;;;;;;5055939;28;20232;-75
2022/03/30 08:36:48;;;;;;;49.05;26.70;;;8.80;99.90;;;;;;5055890;28;20218;-74
2022/03/30 08:39:15;;;;;;;44.65;26.40;;;8.70;99.90;;;;;;5055259;28;20226;-75
2022/03/30 08:41:43;;;;;;;46.30;25.48;;;8.70;99.90;;;;;;5057134;28;20219;-75
2022/03/30 08:44:14;;;;;;;44.95;25.13;;;8.70;99.90;;;;;;5057001;28;20655;-75
2022/03/30 08:46:42;;;;;;;45.38;26.70;;;8.60;99.90;;;;;;5057368;28;20245;-76
2022/03/30 08:49:09;;;;;;;46.95;25.90;;;8.60;99.90;;;;;;5061555;28;20266;-75
2022/03/30 08:51:38;;;;;;;49.85;27.27;;;8.60;99.90;;;;;;5058795;28;20206;-73
2022/03/30 08:54:06;;;;;;;49.30;26.42;;;8.60;99.90;;;;;;5054218;28;20242;-75
2022/03/30 08:56:34;;;;;;;52.78;25.92;;;8.50;99.90;;;;;;5055336;28;20317;-74
2022/03/30 08:59:05;;;;;;;47.80;25.33;;;8.50;99.90;;;;;;5054361;28;20248;-75
2022/03/30 09:01:35;;;;;;;51.35;27.23;;;8.50;99.90;;;;;;5053821;28;20678;-75
2022/03/30 09:04:04;;;;;;;56.45;28.40;;;8.50;99.90;;;;;;5054962;28;20215;-74
2022/03/30 09:06:42;;;;;;;55.28;28.77;;;8.50;99.90;;;;;;5054372;28;20261;-74
2022/03/30 09:09:11;;;;;;;56.00;28.10;;;8.40;99.90;;;;;;5054462;28;20193;-75
2022/03/30 09:11:45;;;;;;;46.88;27.65;;;8.40;99.90;;;;;;5054352;28;20301;-73
2022/03/30 09:14:13;;;;;;;54.88;30.45;;;8.40;99.90;;;;;;5053736;28;20241;-75
2022/03/30 09:16:45;;;;;;;58.63;29.58;;;8.40;99.90;;;;;;5055089;28;20551;-74
2022/03/30 09:19:16;;;;;;;55.95;28.23;;;8.30;99.90;;;;;;5056762;28;20218;-74
2022/03/30 09:21:45;;;;;;;67.55;31.45;;;8.30;99.90;;;;;;5059726;28;20213;-74
2022/03/30 09:24:13;;;;;;;63.70;30.90;;;8.40;99.90;;;;;;5061956;28;20246;-74
2022/03/30 09:26:40;;;;;;;61.13;31.52;;;8.50;99.90;;;;;;5057045;28;20206;-74
2022/03/30 09:29:08;;;;;;;56.63;30.45;;;8.40;99.90;;;;;;5056342;28;20253;-75
2022/03/30 09:31:36;;;;;;;59.30;31.40;;;8.30;99.90;;;;;;5055634;28;20570;-74
2022/03/30 09:34:06;;;;;;;72.85;32.70;;;8.40;99.90;;;;;;5054458;28;20240;-74
2022/03/30 09:36:35;;;;;;;71.05;35.78;;;8.40;99.90;;;;;;5054511;28;20210;-74
2022/03/30 09:39:02;;;;;;;67.18;33.03;;;8.30;99.90;;;;;;5054221;28;20221;-74
2022/03/30 09:41:48;;;;;;;66.50;33.45;;;8.30;99.90;;;;;;5054924;28;20265;-74
2022/03/30 09:44:15;;;;;;;68.10;33.40;;;8.30;99.90;;;;;;5064941;28;20292;-74
2022/03/30 09:46:53;;;;;;;62.67;32.88;;;8.40;99.90;;;;;;5066360;28;20301;-74
2022/03/30 09:49:35;;;;;;;70.03;34.05;;;8.40;99.90;;;;;;5055439;28;20208;-74
2022/03/30 09:52:10;;;;;;;66.15;33.63;;;8.50;99.90;;;;;;5054805;28;20225;-74
2022/03/30 09:54:38;;;;;;;65.18;33.17;;;8.60;99.90;;;;;;5054412;28;20340;-74
2022/03/30 09:57:11;;;;;;;67.03;34.50;;;8.50;99.90;;;;;;5054690;28;20206;-73
2022/03/30 09:59:56;;;;;;;64.68;35.03;;;8.40;99.90;;;;;;5053556;28;20598;-74
2022/03/30 10:02:24;;;;;;;68.47;33.38;;;8.40;99.90;;;;;;5054340;28;20217;-75
2022/03/30 10:04:53;;;;;;;74.93;35.70;;;8.40;99.90;;;;;;5053878;28;20318;-74
2022/03/30 10:07:21;;;;;;;69.07;32.65;;;8.50;99.90;;;;;;5053850;28;20293;-74
2022/03/30 10:09:49;;;;;;;78.45;36.92;;;8.40;99.90;;;;;;5054310;28;20245;-74
2022/03/30 10:12:17;;;;;;;68.32;33.63;;;8.30;99.90;;;;;;5054993;28;20256;-73
2022/03/30 10:14:46;;;;;;;76.68;36.40;;;8.30;99.90;;;;;;5079312;22;20245;-77
2022/03/30 10:17:14;;;;;;;77.05;34.28;;;8.30;99.90;;;;;;5058887;28;20260;-76
2022/03/30 10:19:42;;;;;;;69.60;34.17;;;8.30;99.90;;;;;;5057868;28;20233;-76
2022/03/30 10:22:27;;;;;;;63.83;32.55;;;8.30;99.90;;;;;;5062053;28;20214;-75
2022/03/30 10:25:03;;;;;;;71.05;34.13;;;8.40;99.90;;;;;;5067268;28;20250;-76
2022/03/30 10:27:38;;;;;;;71.80;35.50;;;8.40;99.90;;;;;;5072403;28;20187;-76
2022/03/30 10:30:08;;;;;;;70.88;34.63;;;8.40;99.90;;;;;;5075649;28;20273;-77
2022/03/30 10:32:36;;;;;;;58.55;32.63;;;8.40;99.90;;;;;;5076812;28;20221;-80
2022/03/30 10:35:07;;;;;;;58.53;30.15;;;8.40;99.90;;;;;;5075361;28;20215;-78
2022/03/30 10:37:38;;;;;;;65.35;32.28;;;8.40;99.90;;;;;;5063270;28;20293;-76
2022/03/30 10:40:16;;;;;;;59.45;31.17;;;8.50;99.90;;;;;;5055624;28;20237;-75
2022/03/30 10:42:58;;;;;;;50.55;27.88;;;8.40;99.90;;;;;;5056435;28;20297;-77
2022/03/30 10:45:26;;;;;;;56.15;29.58;;;8.50;99.90;;;;;;5071035;28;20226;-75
2022/03/30 10:48:11;;;;;;;52.65;28.13;;;8.50;99.90;;;;;;5060133;28;20213;-77
2022/03/30 10:50:42;;;;;;;59.60;30.90;;;8.50;99.90;;;;;;5060706;28;20206;-78
2022/03/30 10:53:47;;;;;;;58.90;31.50;;;8.40;99.90;;;;;;5069741;28;20205;-76
2022/03/30 10:56:34;;;;;;;58.85;32.90;;;8.40;99.90;;;;;;5063276;28;20253;-76
2022/03/30 10:59:15;;;;;;;51.70;28.38;;;8.40;99.90;;;;;;5068496;28;20210;-78
2022/03/30 11:01:44;;;;;;;60.42;30.92;;;8.40;99.90;;;;;;5075133;28;20425;-77
2022/03/30 11:04:32;;;;;;;67.32;32.90;;;8.40;99.90;;;;;;5076527;28;20202;-77
2022/03/30 11:07:39;;;;;;;61.63;31.05;;;8.50;99.90;;;;;;5076176;28;20221;-78
2022/03/30 11:10:27;;;;;;;58.13;32.22;;;8.60;99.90;;;;;;5063263;28;20212;-79
2022/03/30 11:13:05;;;;;;;62.00;32.10;;;8.70;99.90;;;;;;5050471;28;20207;-79
2022/03/30 11:15:48;;;;;;;59.55;31.67;;;8.70;99.90;;;;;;5066984;28;20238;-78
2022/03/30 11:18:19;;;;;;;61.13;31.73;;;8.70;99.90;;;;;;5067685;28;20206;-76
2022/03/30 11:21:15;;;;;;;61.85;33.83;;;8.60;99.90;;;;;;5068702;28;20589;-77
2022/03/30 11:24:03;;;;;;;61.55;32.00;;;8.60;99.90;;;;;;5065784;28;20272;-78
2022/03/30 11:27:21;;;;;;;62.80;31.85;;;8.70;99.90;;;;;;5062736;28;20270;-78
2022/03/30 11:29:55;;;;;;;63.67;32.13;;;8.50;99.90;;;;;;5064003;28;20218;-79
2022/03/30 11:33:04;;;;;;;61.60;34.03;;;8.60;99.90;;;;;;5066208;28;20260;-79
2022/03/30 11:35:37;;;;;;;63.30;34.47;;;8.50;99.90;;;;;;5059015;28;20234;-75
2022/03/30 11:38:16;;;;;;;66.18;32.97;;;8.60;99.90;;;;;;5057700;28;20205;-75
2022/03/30 11:40:45;;;;;;;64.93;34.03;;;8.60;99.90;;;;;;5058589;28;20230;-76
2022/03/30 11:43:13;;;;;;;70.47;34.88;;;8.50;99.90;;;;;;5059755;28;20308;-75
2022/03/30 11:45:42;;;;;;;73.80;36.42;;;8.60;99.90;;;;;;5058611;28;20236;-75
2022/03/30 11:48:10;;;;;;;66.22;34.83;;;8.60;99.90;;;;;;5061026;28;20217;-76
2022/03/30 11:50:39;;;;;;;59.55;34.20;;;8.70;99.90;;;;;;5061824;28;20203;-76
2022/03/30 11:53:08;;;;;;;56.88;32.10;;;8.70;99.90;;;;;;5058673;28;20252;-76
2022/03/30 11:55:39;;;;;;;59.63;33.15;;;8.70;99.90;;;;;;5057230;28;20237;-76
2022/03/30 11:58:06;;;;;;;63.22;34.58;;;8.70;99.90;;;;;;5058366;28;20206;-76
2022/03/30 12:00:34;;;;;;;57.58;33.42;;;8.90;99.90;;;;;;5057633;28;20230;-76
2022/03/30 12:03:03;;;;;;;60.88;33.33;;;9.00;99.90;;;;;;5058651;28;20264;-75
2022/03/30 12:05:31;;;;;;;62.65;33.65;;;8.90;99.90;;;;;;5058663;28;20702;-77
2022/03/30 12:08:00;;;;;;;54.40;31.77;;;9.00;99.90;;;;;;5057765;28;20225;-76
2022/03/30 12:10:30;;;;;;;55.05;31.30;;;8.90;99.90;;;;;;5057988;28;20202;-77
2022/03/30 12:12:57;;;;;;;56.90;30.58;;;9.10;99.90;;;;;;5058654;28;20313;-77
2022/03/30 12:15:24;;;;;;;58.45;30.83;;;9.20;99.90;;;;;;5058660;28;20234;-76
2022/03/30 12:17:53;;;;;;;58.03;31.50;;;9.40;99.90;;;;;;5058680;28;20248;-76
2022/03/30 12:20:27;;;;;;;50.30;29.83;;;9.50;98.20;;;;;;5058517;28;20228;-76
2022/03/30 12:23:00;;;;;;;48.92;29.95;;;9.60;97.80;;;;;;5059927;28;20592;-76
2022/03/30 12:25:29;;;;;;;46.28;27.73;;;9.80;96.40;;;;;;5059222;28;20305;-75
2022/03/30 12:27:56;;;;;;;46.58;28.52;;;10.10;94.90;;;;;;5059788;28;20207;-76
2022/03/30 12:30:24;;;;;;;44.17;27.73;;;10.20;92.30;;;;;;5059084;28;20217;-76
2022/03/30 12:32:51;;;;;;;45.17;26.98;;;10.40;90.70;;;;;;5058056;28;20210;-76
2022/03/30 12:35:19;;;;;;;41.65;26.02;;;10.40;89.20;;;;;;5060270;28;20232;-75
2022/03/30 12:37:49;;;;;;;42.38;27.63;;;10.60;89.30;;;;;;5068002;28;20210;-77
2022/03/30 12:40:20;;;;;;;42.35;28.52;;;10.70;86.00;;;;;;5074591;28;20220;-78
2022/03/30 12:42:48;;;;;;;37.83;25.30;;;10.80;84.40;;;;;;5076477;28;20206;-77
2022/03/30 12:45:17;;;;;;;39.22;24.98;;;10.90;82.80;;;;;;5072830;28;20254;-76
2022/03/30 12:47:51;;;;;;;37.88;24.67;;;11.10;82.30;;;;;;5058700;28;20649;-76
2022/03/30 12:50:23;;;;;;;38.55;25.35;;;11.20;79.10;;;;;;5057316;28;20206;-76